Time;durP1;ratioP1;P1;durP2;ratioP2;P2;SDS_P1;SDS_P2;PMS_P1;PMS_P2;Temp;Humidity;BMP_temperature;BMP_pressure;BME280_temperature;BME280_humidity;BME280_pressure;Samples;Min_cycle;Max_cycle;Signal;HPM_P1;HPM_P2
2022/10/17 00:00:59;;;;;;;3.83;3.43;;;;;;;11.74;100.00;101474.50;5038661;28;20201;-70
2022/10/17 00:03:27;;;;;;;3.93;3.00;;;;;;;11.73;100.00;101470.16;5039083;28;20219;-69
2022/10/17 00:05:53;;;;;;;4.37;3.47;;;;;;;11.74;100.00;101474.50;5042063;28;20196;-69
2022/10/17 00:08:20;;;;;;;4.13;3.20;;;;;;;11.75;100.00;101478.84;5043859;28;20206;-70
2022/10/17 00:10:55;;;;;;;4.23;3.70;;;;;;;11.75;100.00;101482.31;5041671;28;20979;-69
2022/10/17 00:13:22;;;;;;;4.53;3.53;;;;;;;11.73;100.00;101480.59;5041691;28;20650;-70
2022/10/17 00:15:48;;;;;;;3.40;2.97;;;;;;;11.74;100.00;101484.94;5040693;28;20587;-68
2022/10/17 00:18:14;;;;;;;3.83;3.03;;;;;;;11.72;100.00;101486.72;5041629;28;20196;-67
2022/10/17 00:20:42;;;;;;;3.57;3.00;;;;;;;11.70;100.00;101493.72;5043773;28;20206;-69
2022/10/17 00:23:09;;;;;;;3.63;2.87;;;;;;;11.66;100.00;101490.31;5041152;28;20579;-69
2022/10/17 00:25:35;;;;;;;4.03;3.10;;;;;;;11.67;100.00;101481.56;5042381;28;20418;-69
2022/10/17 00:28:02;;;;;;;3.27;2.97;;;;;;;11.64;100.00;101488.59;5042796;28;20214;-68
2022/10/17 00:30:29;;;;;;;4.30;3.40;;;;;;;11.62;100.00;101488.63;5040398;28;20660;-69
2022/10/17 00:32:56;;;;;;;3.30;3.00;;;;;;;11.61;100.00;101486.03;5041255;28;20740;-69
2022/10/17 00:35:22;;;;;;;3.97;2.83;;;;;;;11.60;100.00;101494.78;5041120;28;20666;-69
2022/10/17 00:37:50;;;;;;;3.47;3.07;;;;;;;11.60;100.00;101489.53;5036597;28;20222;-68
2022/10/17 00:40:17;;;;;;;4.53;3.33;;;;;;;11.62;100.00;101493.00;5043472;28;20203;-68
2022/10/17 00:42:46;;;;;;;4.00;3.40;;;;;;;11.63;100.00;101492.13;5040187;28;20223;-69
2022/10/17 00:45:18;;;;;;;3.97;3.00;;;;;;;11.65;100.00;101488.56;5039911;28;20196;-69
2022/10/17 00:47:49;;;;;;;7.73;3.30;;;;;;;11.65;100.00;101496.41;5070236;28;20225;-69
2022/10/17 00:50:16;;;;;;;4.30;3.20;;;;;;;11.64;100.00;101496.44;5035226;28;20656;-69
2022/10/17 00:52:44;;;;;;;3.30;3.00;;;;;;;11.65;100.00;101495.56;5042495;28;20347;-69
2022/10/17 00:55:16;;;;;;;3.83;3.00;;;;;;;11.64;100.00;101504.28;5041787;28;20652;-69
2022/10/17 00:57:44;;;;;;;3.87;3.07;;;;;;;11.59;100.00;101506.97;5038202;28;20204;-69
2022/10/17 01:00:13;;;;;;;3.73;3.17;;;;;;;11.55;100.00;101505.28;5038951;28;20191;-70
2022/10/17 01:02:41;;;;;;;5.87;2.80;;;;;;;11.49;100.00;101503.63;5038358;28;20215;-69
2022/10/17 01:05:08;;;;;;;4.17;3.23;;;;;;;11.47;100.00;101494.13;5041622;28;20628;-69
2022/10/17 01:07:36;;;;;;;3.50;3.13;;;;;;;11.46;100.00;101495.84;5039351;28;20210;-69
2022/10/17 01:10:04;;;;;;;4.27;3.30;;;;;;;11.42;100.00;101488.94;5040296;28;20195;-70
2022/10/17 01:12:54;;;;;;;3.73;2.87;;;;;;;11.40;100.00;101484.63;5036190;28;20694;-70
2022/10/17 01:15:31;;;;;;;3.70;3.17;;;;;;;11.42;100.00;101482.88;5047983;28;20322;-69
2022/10/17 01:18:08;;;;;;;4.47;3.40;;;;;;;11.46;100.00;101481.94;5050338;28;20207;-68
2022/10/17 01:20:57;;;;;;;4.90;3.40;;;;;;;11.51;100.00;101482.72;5039669;28;20207;-69
2022/10/17 01:23:38;;;;;;;5.57;3.40;;;;;;;11.50;100.00;101486.22;5036878;28;20235;-70
2022/10/17 01:26:16;;;;;;;3.67;3.07;;;;;;;11.48;100.00;101490.59;5042588;28;20210;-70
2022/10/17 01:29:01;;;;;;;4.87;3.53;;;;;;;11.46;100.00;101500.22;5073350;28;20199;-68
2022/10/17 01:31:37;;;;;;;4.63;3.80;;;;;;;11.42;100.00;101498.53;5038987;28;20595;-70
2022/10/17 01:34:11;;;;;;;4.97;3.67;;;;;;;11.42;100.00;101494.19;5039935;28;20298;-69
2022/10/17 01:36:47;;;;;;;5.60;3.17;;;;;;;11.36;100.00;101479.47;5039912;28;20289;-68
2022/10/17 01:39:20;;;;;;;4.03;3.33;;;;;;;11.40;100.00;101482.00;5057440;28;20207;-70
2022/10/17 01:41:52;;;;;;;4.60;3.30;;;;;;;11.30;100.00;101479.56;5041563;28;20288;-69
2022/10/17 01:44:23;;;;;;;4.63;3.53;;;;;;;11.29;100.00;101482.19;5053388;28;20809;-69
2022/10/17 01:46:54;;;;;;;4.07;3.07;;;;;;;11.31;100.00;101477.78;5036985;28;20211;-68
2022/10/17 01:49:25;;;;;;;4.70;3.30;;;;;;;11.34;100.00;101483.88;5039997;28;20258;-69
2022/10/17 01:51:58;;;;;;;5.27;3.30;;;;;;;11.32;100.00;101485.59;5042489;28;20431;-69
2022/10/17 01:54:27;;;;;;;5.70;3.50;;;;;;;11.35;100.00;101484.72;5035515;28;20215;-69
2022/10/17 01:56:58;;;;;;;4.17;3.47;;;;;;;11.36;100.00;101489.91;5037962;28;20197;-69
2022/10/17 01:59:31;;;;;;;4.83;3.63;;;;;;;11.37;100.00;101490.78;5039384;28;20202;-69
2022/10/17 02:02:01;;;;;;;5.97;3.90;;;;;;;11.33;100.00;101489.97;5069601;28;20329;-68
2022/10/17 02:04:28;;;;;;;8.30;3.47;;;;;;;11.35;100.00;101482.09;5039801;28;20564;-68
2022/10/17 02:06:55;;;;;;;5.43;3.53;;;;;;;11.34;100.00;101490.81;5038741;28;20199;-69
2022/10/17 02:09:23;;;;;;;5.93;4.00;;;;;;;11.37;100.00;101493.38;5039058;28;20288;-70
2022/10/17 02:12:28;;;;;;;5.20;3.60;;;;;;;11.40;100.00;101479.41;5034394;28;20234;-69
2022/10/17 02:15:08;;;;;;;5.03;4.00;;;;;;;11.39;100.00;101491.59;5030491;28;20218;-69
2022/10/17 02:17:44;;;;;;;4.53;3.87;;;;;;;11.39;100.00;101485.53;5042141;28;20205;-68
2022/10/17 02:20:20;;;;;;;4.70;3.70;;;;;;;11.34;100.00;101496.03;5043610;28;20208;-69
2022/10/17 02:22:51;;;;;;;5.13;3.73;;;;;;;11.30;100.00;101491.75;5057915;28;20250;-68
2022/10/17 02:25:27;;;;;;;6.70;4.37;;;;;;;11.25;100.00;101493.56;5041464;28;20203;-70
2022/10/17 02:28:03;;;;;;;5.30;3.90;;;;;;;11.25;100.00;101488.34;5050800;28;20612;-69
2022/10/17 02:30:33;;;;;;;6.30;3.90;;;;;;;11.19;100.00;101491.91;5029575;28;20204;-69
2022/10/17 02:33:06;;;;;;;6.00;3.80;;;;;;;11.13;100.00;101484.16;5025835;28;20238;-70
2022/10/17 02:35:37;;;;;;;4.47;3.63;;;;;;;11.13;100.00;101484.16;5045445;28;20775;-69
2022/10/17 02:38:06;;;;;;;4.07;3.67;;;;;;;11.06;100.00;101488.59;5039993;28;20206;-70
2022/10/17 02:40:33;;;;;;;9.20;4.30;;;;;;;11.03;100.00;101487.78;5059950;28;20746;-69
2022/10/17 02:43:00;;;;;;;6.73;4.20;;;;;;;10.99;100.00;101485.25;5038289;23;20233;-73
2022/10/17 02:45:34;;;;;;;5.20;4.07;;;;;;;10.99;100.00;101479.16;4992327;28;20516;-73
2022/10/17 02:48:04;;;;;;;5.10;3.97;;;;;;;11.01;100.00;101476.50;5018538;28;20224;-72
2022/10/17 02:50:39;;;;;;;8.07;4.10;;;;;;;10.98;100.00;101485.25;5000642;28;20223;-71
2022/10/17 02:53:10;;;;;;;7.70;4.00;;;;;;;10.95;100.00;101482.69;5000665;28;20199;-72
2022/10/17 02:55:43;;;;;;;4.53;3.77;;;;;;;10.89;100.00;101485.41;4991490;28;20505;-73
2022/10/17 02:58:16;;;;;;;5.50;4.03;;;;;;;10.86;100.00;101475.84;5010661;28;20210;-71
2022/10/17 03:00:43;;;;;;;6.13;3.90;;;;;;;10.83;100.00;101482.84;5014833;28;20742;-72
2022/10/17 03:03:22;;;;;;;5.77;4.50;;;;;;;10.92;100.00;101477.50;5011646;28;20204;-73
2022/10/17 03:05:48;;;;;;;7.33;4.80;;;;;;;11.02;100.00;101467.81;4990968;28;20199;-70
2022/10/17 03:08:15;;;;;;;6.80;5.03;;;;;;;11.05;100.00;101470.38;5011790;28;20292;-73
2022/10/17 03:10:41;;;;;;;8.87;5.10;;;;;;;11.04;100.00;101477.34;4990794;28;20589;-69
2022/10/17 03:13:08;;;;;;;5.43;4.43;;;;;;;11.08;100.00;101467.72;4996818;28;20741;-71
2022/10/17 03:15:38;;;;;;;7.47;5.20;;;;;;;11.12;100.00;101480.69;5008170;28;20716;-70
2022/10/17 03:18:05;;;;;;;8.70;5.30;;;;;;;11.20;100.00;101488.41;4995354;28;20295;-72
2022/10/17 03:20:33;;;;;;;7.77;5.57;;;;;;;11.26;100.00;101474.44;5009452;28;20234;-73
2022/10/17 03:22:59;;;;;;;9.33;5.77;;;;;;;11.26;100.00;101477.88;5009036;28;20211;-72
2022/10/17 03:25:27;;;;;;;10.27;5.53;;;;;;;11.30;100.00;101478.69;5012850;28;20188;-70
2022/10/17 03:27:54;;;;;;;9.43;5.67;;;;;;;11.31;100.00;101476.06;4994274;28;20204;-72
2022/10/17 03:30:20;;;;;;;9.60;6.03;;;;;;;11.32;100.00;101482.16;5008029;28;20211;-70
2022/10/17 03:32:47;;;;;;;8.90;6.43;;;;;;;11.34;100.00;101482.97;5006415;28;20204;-70
2022/10/17 03:35:13;;;;;;;10.73;6.67;;;;;;;11.41;100.00;101481.13;5005356;28;20676;-73
2022/10/17 03:37:41;;;;;;;14.70;7.20;;;;;;;11.47;100.00;101479.31;4986777;28;20666;-74
2022/10/17 03:40:08;;;;;;;14.10;7.87;;;;;;;11.51;100.00;101482.72;4993932;28;20305;-74
2022/10/17 03:42:34;;;;;;;12.13;7.43;;;;;;;11.57;100.00;101485.22;5010780;28;20266;-75
2022/10/17 03:45:02;;;;;;;11.57;7.37;;;;;;;11.61;100.00;101483.41;4995415;28;20203;-75
2022/10/17 03:47:29;;;;;;;13.03;8.03;;;;;;;11.64;100.00;101479.00;5008645;28;20243;-75
2022/10/17 03:49:56;;;;;;;15.73;8.23;;;;;;;11.65;100.00;101487.72;4989194;28;20580;-75
2022/10/17 03:52:22;;;;;;;13.53;8.07;;;;;;;11.63;100.00;101485.13;5014406;28;20212;-72
2022/10/17 03:54:51;;;;;;;15.97;8.80;;;;;;;11.66;100.00;101497.25;4997196;28;20223;-73
2022/10/17 03:57:19;;;;;;;19.53;9.23;;;;;;;11.66;100.00;101489.44;5002949;28;20194;-75
2022/10/17 03:59:46;;;;;;;17.57;10.07;;;;;;;11.62;100.00;101493.84;4991391;28;20228;-74
2022/10/17 04:02:16;;;;;;;17.83;10.17;;;;;;;11.70;100.00;101501.56;5004812;28;20255;-73
2022/10/17 04:04:43;;;;;;;20.47;10.53;;;;;;;11.72;100.00;101499.78;4981322;28;20263;-75
2022/10/17 04:07:10;;;;;;;18.03;10.30;;;;;;;11.70;100.00;101505.03;4986208;28;20226;-73
2022/10/17 04:09:40;;;;;;;19.60;10.97;;;;;;;11.77;100.00;101505.81;4987157;28;20223;-75
2022/10/17 04:12:14;;;;;;;19.33;11.10;;;;;;;11.74;100.00;101503.22;4987350;28;20223;-75
2022/10/17 04:14:40;;;;;;;22.13;11.10;;;;;;;11.73;100.00;101499.75;5006142;28;20315;-73
2022/10/17 04:17:08;;;;;;;19.83;10.67;;;;;;;11.70;100.00;101493.72;5004452;28;20212;-74
2022/10/17 04:19:35;;;;;;;19.90;10.60;;;;;;;11.65;100.00;101495.56;4986302;28;20224;-75
2022/10/17 04:22:02;;;;;;;22.50;11.53;;;;;;;11.67;100.00;101493.78;4993031;28;20701;-74
2022/10/17 04:24:31;;;;;;;22.80;11.23;;;;;;;11.62;100.00;101491.22;4988889;28;20203;-75
2022/10/17 04:27:04;;;;;;;24.20;11.97;;;;;;;11.60;100.00;101493.00;4985553;28;20654;-71
2022/10/17 04:29:34;;;;;;;20.23;11.30;;;;;;;11.59;100.00;101496.53;4989119;28;20373;-75
2022/10/17 04:32:08;;;;;;;21.70;12.23;;;;;;;11.56;100.00;101489.59;4984474;28;20192;-75
2022/10/17 04:34:41;;;;;;;20.40;11.87;;;;;;;11.59;100.00;101496.53;4985730;28;20222;-72
2022/10/17 04:37:08;;;;;;;20.43;10.70;;;;;;;11.59;100.00;101491.31;4995938;28;20208;-73
2022/10/17 04:39:37;;;;;;;21.80;12.30;;;;;;;11.59;100.00;101493.91;5002470;28;20224;-72
2022/10/17 04:42:04;;;;;;;24.17;11.83;;;;;;;11.63;100.00;101490.34;4984626;28;20213;-75
2022/10/17 04:44:32;;;;;;;23.73;12.13;;;;;;;11.66;100.00;101490.31;4988919;28;20826;-73
2022/10/17 04:47:00;;;;;;;23.83;12.23;;;;;;;11.67;100.00;101485.94;5005212;28;20196;-75
2022/10/17 04:49:26;;;;;;;24.17;12.27;;;;;;;11.73;100.00;101494.53;5003085;28;20247;-74
2022/10/17 04:51:58;;;;;;;23.67;12.87;;;;;;;11.74;100.00;101493.63;5001412;28;20193;-75
2022/10/17 04:54:32;;;;;;;24.63;13.10;;;;;;;11.76;100.00;101498.84;4985770;28;20196;-73
2022/10/17 04:57:06;;;;;;;22.87;12.80;;;;;;;11.72;100.00;101503.25;5008421;28;20206;-74
2022/10/17 04:59:33;;;;;;;24.03;12.33;;;;;;;11.70;100.00;101497.19;4987295;28;20231;-74
2022/10/17 05:02:24;;;;;;;32.17;14.07;;;;;;;11.74;100.00;101505.84;4998489;28;20212;-74
2022/10/17 05:04:51;;;;;;;26.47;13.50;;;;;;;11.77;100.00;101502.31;4982767;28;20228;-71
2022/10/17 05:07:19;;;;;;;25.77;13.60;;;;;;;11.81;100.00;101496.16;4981257;28;20516;-75
2022/10/17 05:10:02;;;;;;;26.47;13.80;;;;;;;11.81;100.00;101501.38;5000179;28;20223;-73
2022/10/17 05:12:30;;;;;;;26.17;13.87;;;;;;;11.75;100.00;101497.13;4987630;28;20856;-74
2022/10/17 05:14:57;;;;;;;30.40;14.67;;;;;;;11.74;100.00;101496.25;5002518;28;20223;-73
2022/10/17 05:17:26;;;;;;;26.33;13.33;;;;;;;11.75;100.00;101497.97;5005676;28;20193;-74
2022/10/17 05:19:53;;;;;;;27.90;14.00;;;;;;;11.75;100.00;101494.53;5003486;28;20225;-74
2022/10/17 05:22:19;;;;;;;26.40;14.23;;;;;;;11.75;100.00;101492.75;5003117;28;20210;-75
2022/10/17 05:24:46;;;;;;;30.60;14.20;;;;;;;11.75;100.00;101499.75;4990606;28;20199;-75
2022/10/17 05:27:13;;;;;;;25.67;13.63;;;;;;;11.78;100.00;101501.44;4984288;28;20231;-74
2022/10/17 05:29:40;;;;;;;25.47;13.83;;;;;;;11.78;100.00;101497.06;4987962;28;20216;-75
2022/10/17 05:32:14;;;;;;;30.53;15.33;;;;;;;11.80;100.00;101497.88;4992554;28;20195;-74
2022/10/17 05:34:42;;;;;;;27.53;13.97;;;;;;;11.81;100.00;101507.47;5007874;28;20212;-72
2022/10/17 05:37:10;;;;;;;31.87;14.63;;;;;;;11.82;100.00;101510.94;4983484;28;20641;-73
2022/10/17 05:39:37;;;;;;;30.97;15.43;;;;;;;11.79;100.00;101505.78;4986423;28;20422;-74
2022/10/17 05:42:04;;;;;;;28.63;14.97;;;;;;;11.78;100.00;101511.88;4986213;28;20541;-72
2022/10/17 05:44:30;;;;;;;29.17;15.43;;;;;;;11.81;100.00;101511.84;4988166;28;20239;-75
2022/10/17 05:46:59;;;;;;;26.40;15.17;;;;;;;11.80;100.00;101510.94;4985955;28;20203;-73
2022/10/17 05:49:27;;;;;;;32.87;15.87;;;;;;;11.78;100.00;101515.34;4992306;28;20224;-73
2022/10/17 05:51:54;;;;;;;29.93;17.20;;;;;;;11.78;100.00;101519.72;4988210;28;20214;-74
2022/10/17 05:54:21;;;;;;;35.03;17.47;;;;;;;11.82;100.00;101519.66;4993258;28;20204;-74
2022/10/17 05:56:51;;;;;;;34.90;16.90;;;;;;;11.87;100.00;101519.56;5014679;28;20287;-75
2022/10/17 05:59:18;;;;;;;32.23;16.57;;;;;;;11.92;100.00;101526.47;4986573;28;20225;-71
2022/10/17 06:01:55;;;;;;;34.13;17.67;;;;;;;11.99;100.00;101531.59;4987867;28;20211;-75
2022/10/17 06:04:21;;;;;;;33.83;18.23;;;;;;;11.99;100.00;101535.03;4992063;28;20214;-75
2022/10/17 06:06:48;;;;;;;34.40;17.50;;;;;;;12.02;100.00;101531.53;4986434;28;20201;-75
2022/10/17 06:09:16;;;;;;;34.40;18.43;;;;;;;12.08;100.00;101541.88;4990676;28;20226;-74
2022/10/17 06:11:46;;;;;;;38.33;18.57;;;;;;;12.10;100.00;101542.69;5008885;28;20737;-75
2022/10/17 06:14:13;;;;;;;37.50;16.70;;;;;;;12.13;100.00;101545.25;5007252;28;20236;-75
2022/10/17 06:16:42;;;;;;;33.80;17.63;;;;;;;12.14;100.00;101557.47;4989509;28;20303;-75
2022/10/17 06:19:10;;;;;;;34.53;17.60;;;;;;;12.19;100.00;101555.63;4988780;28;20259;-75
2022/10/17 06:21:37;;;;;;;32.17;16.90;;;;;;;12.25;100.00;101560.72;4989070;28;20306;-74
2022/10/17 06:24:12;;;;;;;31.53;17.17;;;;;;;12.34;100.00;101558.84;4993260;28;20303;-76
2022/10/17 06:26:43;;;;;;;34.67;17.47;;;;;;;12.40;100.00;101563.94;4991012;28;20267;-75
2022/10/17 06:29:11;;;;;;;31.23;16.53;;;;;;;12.46;100.00;101559.47;5010283;28;20287;-74
2022/10/17 06:31:43;;;;;;;35.30;17.20;;;;;;;12.53;100.00;101564.59;4991880;28;20732;-74
2022/10/17 06:34:10;;;;;;;37.60;17.73;;;;;;;12.58;100.00;101562.75;5009276;28;20224;-75
2022/10/17 06:36:38;;;;;;;40.63;18.40;;;;;;;12.65;100.00;101565.22;4987333;28;20217;-75
2022/10/17 06:39:05;;;;;;;37.00;18.37;;;;;;;12.71;100.00;101572.06;4998197;28;20201;-74
2022/10/17 06:41:38;;;;;;;40.03;18.10;;;;;;;12.76;100.00;101574.59;4974791;28;20213;-73
2022/10/17 06:44:10;;;;;;;36.00;18.73;;;;;;;12.84;100.00;101576.16;4992846;28;20366;-75
2022/10/17 06:46:49;;;;;;;38.53;17.97;;;;;;;12.93;100.00;101582.09;5017724;28;20296;-75
2022/10/17 06:49:17;;;;;;;39.17;18.57;;;;;;;12.96;100.00;101576.78;4990723;28;20693;-76
2022/10/17 06:52:09;;;;;;;34.80;16.97;;;;;;;13.02;100.00;101579.31;4986697;28;20685;-75
2022/10/17 06:54:47;;;;;;;35.03;17.23;;;;;;;13.10;100.00;101579.13;4998892;28;20660;-74
2022/10/17 06:57:28;;;;;;;36.70;17.60;;;;;;;13.16;100.00;101586.88;4990253;28;20230;-74
2022/10/17 07:00:18;;;;;;;38.73;18.53;;;;;;;13.21;100.00;101591.09;5005778;28;20507;-72
2022/10/17 07:02:49;;;;;;;41.70;18.43;;;;;;;13.27;100.00;101585.72;5013710;28;20229;-74
2022/10/17 07:05:18;;;;;;;45.37;19.03;;;;;;;13.34;100.00;101589.09;4990894;28;20214;-75
2022/10/17 07:07:44;;;;;;;41.77;17.47;;;;;;;13.40;100.00;101590.72;4991462;28;20685;-74
2022/10/17 07:10:10;;;;;;;36.10;17.77;;;;;;;13.47;100.00;101594.06;5008089;28;20229;-74
2022/10/17 07:12:39;;;;;;;39.77;18.37;;;;;;;13.53;100.00;101600.03;5010609;28;20195;-75
2022/10/17 07:15:06;;;;;;;43.57;18.73;;;;;;;13.60;100.00;101600.75;4994458;28;20198;-76
2022/10/17 07:17:35;;;;;;;42.53;18.33;;;;;;;13.67;100.00;101607.56;5018326;28;20229;-75
2022/10/17 07:20:01;;;;;;;37.57;16.70;;;;;;;13.75;100.00;101607.38;5011706;28;20231;-73
2022/10/17 07:22:30;;;;;;;39.17;19.17;;;;;;;13.83;100.00;101594.97;5001848;28;20396;-75
2022/10/17 07:24:57;;;;;;;40.67;18.57;;;;;;;13.94;100.00;101597.31;4996483;28;20202;-72
2022/10/17 07:27:32;;;;;;;43.27;19.33;;;;;;;14.04;100.00;101598.81;4995842;28;20698;-74
2022/10/17 07:29:58;;;;;;;44.57;19.80;;;;;;;14.10;100.00;101592.56;5017541;28;20751;-74
2022/10/17 07:32:38;;;;;;;47.77;20.53;;;;;;;14.19;100.00;101594.94;4991722;28;20204;-74
2022/10/17 07:35:07;;;;;;;39.30;18.97;;;;;;;14.30;100.00;101589.41;5005094;28;20549;-74
2022/10/17 07:37:33;;;;;;;43.73;19.30;;;;;;;14.38;100.00;101595.31;4983507;28;20220;-74
2022/10/17 07:40:00;;;;;;;52.07;20.83;;;;;;;14.47;100.00;101596.84;4993541;28;20243;-75
2022/10/17 07:42:27;;;;;;;44.10;19.57;;;;;;;14.55;100.00;101600.97;4988520;28;20215;-75
2022/10/17 07:44:54;;;;;;;46.93;20.53;;;;;;;14.64;100.00;101602.53;4993449;28;20271;-75
2022/10/17 07:47:22;;;;;;;40.77;18.93;;;;;;;14.73;100.00;101602.25;4993971;28;20669;-74
2022/10/17 07:49:50;;;;;;;50.70;20.90;;;;;;;14.84;100.00;101601.09;4993830;28;20686;-75
2022/10/17 07:52:17;;;;;;;45.97;19.23;;;;;;;14.92;100.00;101604.38;5010004;28;20192;-74
2022/10/17 07:54:44;;;;;;;43.60;20.83;;;;;;;15.01;100.00;101604.09;5005655;28;20193;-74
2022/10/17 07:57:10;;;;;;;45.50;19.97;;;;;;;15.13;100.00;101610.78;5009455;28;20213;-75
2022/10/17 07:59:38;;;;;;;47.30;20.80;;;;;;;15.18;100.00;101615.88;5007596;28;20597;-75
2022/10/17 08:02:06;;;;;;;54.70;19.60;;;;;;;15.24;100.00;101606.03;5017058;28;20207;-73
2022/10/17 08:04:35;;;;;;;53.70;20.67;;;;;;;15.33;100.00;101608.38;5009743;28;20209;-75
2022/10/17 08:07:02;;;;;;;51.93;21.90;;;;;;;15.43;100.00;101608.97;5012342;28;20205;-75
2022/10/17 08:09:29;;;;;;;53.23;21.43;;;;;;;15.55;100.00;101588.47;5008823;28;20323;-75
2022/10/17 08:11:55;;;;;;;55.10;21.90;;;;;;;15.68;100.00;101595.06;5006604;28;20212;-75
2022/10/17 08:14:22;;;;;;;57.27;21.63;;;;;;;15.80;100.00;101597.34;5008515;28;20286;-74
2022/10/17 08:16:48;;;;;;;55.13;23.60;;;;;;;15.90;100.00;101600.53;5014084;28;20228;-74
2022/10/17 08:19:15;;;;;;;51.10;22.47;;;;;;;16.02;100.00;101602.75;5010871;28;20223;-73
2022/10/17 08:21:43;;;;;;;57.87;23.10;;;;;;;16.12;100.00;101594.56;5008873;28;20212;-75
2022/10/17 08:24:11;;;;;;;54.63;22.97;;;;;;;16.19;100.00;101603.94;5007123;28;20201;-74
2022/10/17 08:26:37;;;;;;;57.53;22.13;;;;;;;16.21;100.00;101602.97;5008769;28;20542;-75
2022/10/17 08:29:04;;;;;;;59.83;24.27;;;;;;;16.24;100.00;101605.50;5012173;28;20235;-75
2022/10/17 08:31:30;;;;;;;53.30;23.07;;;;;;;16.25;100.00;101606.34;5044773;23;20231;-73
2022/10/17 08:33:56;;;;;;;52.57;21.30;;;;;;;16.30;100.00;101603.56;5063913;28;21051;-72
2022/10/17 08:36:23;;;;;;;48.63;21.33;;;;;;;16.33;100.00;101600.84;5060961;28;20219;-73
2022/10/17 08:38:49;;;;;;;40.63;19.57;;;;;;;16.40;100.00;101613.72;5059327;28;20210;-73
2022/10/17 08:41:31;;;;;;;35.30;17.40;;;;;;;16.47;100.00;101609.13;5061294;28;20198;-72
2022/10/17 08:44:08;;;;;;;31.63;16.23;;;;;;;16.57;100.00;101605.25;5072764;28;20574;-73
2022/10/17 08:46:37;;;;;;;32.40;17.70;;;;;;;16.72;100.00;101614.34;5038860;28;20211;-72
2022/10/17 08:49:11;;;;;;;28.70;15.07;;;;;;;16.84;100.00;101608.66;5040597;28;20218;-72
2022/10/17 08:51:47;;;;;;;21.97;12.63;;;;;;;17.01;100.00;101609.84;5043845;28;20213;-72
2022/10/17 08:54:20;;;;;;;25.97;14.77;;;;;;;17.09;100.00;101615.66;5023941;28;20223;-73
2022/10/17 08:56:50;;;;;;;17.90;11.53;;;;;;;17.24;100.00;101611.59;5019916;28;20216;-72
2022/10/17 08:59:20;;;;;;;17.23;11.20;;;;;;;17.37;100.00;101618.09;5016999;28;20211;-73
2022/10/17 09:01:54;;;;;;;17.27;10.30;;;;;;;17.50;100.00;101622.88;5019455;28;20295;-73
2022/10/17 09:04:43;;;;;;;13.37;9.10;;;;;;;17.61;100.00;101620.72;5017272;28;20585;-73
2022/10/17 09:07:15;;;;;;;13.03;8.93;;;;;;;17.70;100.00;101616.84;5016361;28;20560;-73
2022/10/17 09:09:52;;;;;;;12.67;8.43;;;;;;;17.79;100.00;101617.31;5019114;28;20567;-71
2022/10/17 09:12:24;;;;;;;12.23;8.17;;;;;;;17.84;100.00;101618.91;5017712;28;20234;-71
2022/10/17 09:15:11;;;;;;;12.53;8.50;;;;;;;17.86;100.00;101627.66;5022460;28;20208;-72
2022/10/17 09:17:50;;;;;;;15.83;8.60;;;;;;;17.86;100.00;101627.66;5017932;28;20241;-73
2022/10/17 09:20:20;;;;;;;11.70;7.77;;;;;;;17.79;100.00;101624.38;5016393;28;20253;-72
2022/10/17 09:22:53;;;;;;;13.00;7.83;;;;;;;17.71;100.00;101611.50;5018048;28;20814;-72
2022/10/17 09:25:20;;;;;;;10.97;7.70;;;;;;;17.71;100.00;101621.19;5020284;28;20207;-72
2022/10/17 09:27:51;;;;;;;12.83;7.70;;;;;;;17.75;100.00;101622.78;5016901;28;20204;-73
2022/10/17 09:30:28;;;;;;;11.60;7.20;;;;;;;17.79;100.00;101617.31;5022319;28;20207;-73
2022/10/17 09:32:54;;;;;;;12.40;7.77;;;;;;;17.83;100.00;101617.19;5019054;28;20227;-73
2022/10/17 09:35:23;;;;;;;11.23;8.00;;;;;;;17.88;100.00;101616.09;5019756;28;20560;-72
2022/10/17 09:37:50;;;;;;;10.70;7.60;;;;;;;17.93;100.00;101622.06;5010814;28;20239;-72
2022/10/17 09:40:21;;;;;;;12.47;7.80;;;;;;;17.98;100.00;101620.09;5016156;28;20200;-72
2022/10/17 09:42:50;;;;;;;11.40;7.07;;;;;;;18.05;100.00;101625.13;5019837;28;20228;-72
2022/10/17 09:45:23;;;;;;;10.30;7.27;;;;;;;18.10;100.00;101624.00;5008987;28;20209;-73
2022/10/17 09:47:57;;;;;;;12.77;7.47;;;;;;;18.14;100.00;101622.09;4997230;28;20653;-73
2022/10/17 09:50:27;;;;;;;10.53;7.23;;;;;;;18.26;100.00;101628.66;4994643;28;20298;-73
2022/10/17 09:52:55;;;;;;;12.60;7.40;;;;;;;18.29;100.00;101631.13;5001946;28;20235;-73
2022/10/17 09:55:29;;;;;;;10.83;6.90;;;;;;;18.35;100.00;101622.97;5001085;28;20215;-73
2022/10/17 09:57:58;;;;;;;13.37;8.10;;;;;;;18.44;100.00;101624.34;5001884;28;20215;-73
2022/10/17 10:00:28;;;;;;;10.63;7.03;;;;;;;18.56;100.00;101629.09;5001579;28;20231;-72
2022/10/17 10:03:09;;;;;;;10.07;7.10;;;;;;;18.62;100.00;101633.25;5005484;28;20242;-72
2022/10/17 10:05:35;;;;;;;10.27;6.73;;;;;;;18.65;100.00;101628.69;5002018;28;20203;-73
2022/10/17 10:08:05;;;;;;;11.67;8.00;;;;;;;18.74;100.00;101623.00;5002748;28;20209;-73
2022/10/17 10:10:32;;;;;;;11.43;7.40;;;;;;;18.79;100.00;101627.22;4994548;28;20208;-72
2022/10/17 10:13:06;;;;;;;10.10;6.67;;;;;;;18.93;100.00;101630.13;5002677;28;20227;-73
2022/10/17 10:15:36;;;;;;;10.63;7.10;;;;;;;19.06;100.00;101623.34;4997292;28;20204;-72
2022/10/17 10:18:03;;;;;;;10.90;7.20;;;;;;;19.13;100.00;101629.22;5004339;28;20231;-72
2022/10/17 10:20:35;;;;;;;9.37;6.87;;;;;;;19.13;100.00;101638.94;5002120;28;20208;-71
2022/10/17 10:23:06;;;;;;;8.67;6.57;;;;;;;19.17;100.00;101636.09;5002245;28;20228;-71
2022/10/17 10:25:34;;;;;;;7.87;6.27;;;;;;;19.25;100.00;101635.72;5003700;28;20212;-73
2022/10/17 10:28:02;;;;;;;8.43;6.27;;;;;;;19.33;100.00;101638.88;4984484;28;20200;-73
2022/10/17 10:30:30;;;;;;;9.37;6.80;;;;;;;19.43;100.00;101640.13;4997435;28;20205;-73
2022/10/17 10:33:00;;;;;;;9.40;6.57;;;;;;;19.51;100.00;101630.97;5005812;28;20923;-73
2022/10/17 10:35:32;;;;;;;9.90;6.57;;;;;;;19.56;100.00;101628.97;5000886;28;20236;-72
2022/10/17 10:38:01;;;;;;;10.07;6.40;;;;;;;19.58;100.00;101619.19;5003249;28;20735;-73
2022/10/17 10:40:31;;;;;;;9.53;6.60;;;;;;;19.68;100.00;101605.44;5004536;28;20395;-72
2022/10/17 10:42:59;;;;;;;9.60;6.93;;;;;;;19.78;100.00;101605.03;5004416;28;20834;-73
2022/10/17 10:45:28;;;;;;;8.83;6.40;;;;;;;19.80;100.00;101603.16;5008401;28;20672;-73
2022/10/17 10:47:58;;;;;;;9.93;6.53;;;;;;;19.80;100.00;101611.94;5005138;28;20735;-72
2022/10/17 10:50:29;;;;;;;9.00;6.50;;;;;;;19.92;100.00;101609.63;5000879;28;20264;-70
2022/10/17 10:53:17;;;;;;;8.73;6.43;;;;;;;20.00;100.00;101610.13;5005799;28;20220;-71
2022/10/17 10:55:50;;;;;;;8.43;6.00;;;;;;;20.04;100.00;101603.72;4999250;28;20666;-73
2022/10/17 10:58:27;;;;;;;8.80;6.50;;;;;;;20.11;100.00;101607.78;5005558;28;20232;-70
2022/10/17 11:00:55;;;;;;;9.97;6.70;;;;;;;20.21;100.00;101608.13;5002487;28;20205;-70
2022/10/17 11:03:28;;;;;;;9.50;6.13;;;;;;;20.31;100.00;101606.75;5007546;28;20311;-70
2022/10/17 11:05:58;;;;;;;8.80;6.70;;;;;;;20.41;100.00;101607.97;5001182;28;20201;-71
2022/10/17 11:08:33;;;;;;;7.23;5.53;;;;;;;20.57;100.00;101608.03;5000242;28;20205;-70
2022/10/17 11:11:08;;;;;;;7.57;5.88;;;;;;;20.72;100.00;101603.75;5002591;28;20455;-70
2022/10/17 11:13:40;;;;;;;8.38;5.68;;;;;;;20.82;100.00;101608.56;5002854;28;20228;-71
2022/10/17 11:16:18;;;;;;;7.75;5.72;;;;;;;20.81;100.00;101610.38;5000226;28;20663;-71
2022/10/17 11:18:51;;;;;;;7.57;5.38;;;;;;;20.88;100.00;101609.09;5007337;28;20235;-71
2022/10/17 11:21:27;;;;;;;7.65;5.82;;;;;;;21.02;100.00;101607.47;4998423;28;20698;-70
2022/10/17 11:24:00;;;;;;;9.23;5.85;;;;;;;21.11;100.00;101591.94;5003988;28;20717;-71